sensor_id;sensor_type;location;lat;lon;timestamp;temperature;humidity
9975;DHT22;5028;50.974;4.968;2022-12-18T00:00:40;-4.00;99.90
9975;DHT22;5028;50.974;4.968;2022-12-18T00:03:08;-4.00;99.90
9975;DHT22;5028;50.974;4.968;2022-12-18T00:05:51;-4.10;99.90
9975;DHT22;5028;50.974;4.968;2022-12-18T00:08:34;-4.10;99.90
9975;DHT22;5028;50.974;4.968;2022-12-18T00:11:13;-4.20;99.90
9975;DHT22;5028;50.974;4.968;2022-12-18T00:13:41;-4.20;99.90
9975;DHT22;5028;50.974;4.968;2022-12-18T00:16:18;-4.20;99.90
9975;DHT22;5028;50.974;4.968;2022-12-18T00:18:48;-4.20;99.90
9975;DHT22;5028;50.974;4.968;2022-12-18T00:21:22;-4.30;99.90
9975;DHT22;5028;50.974;4.968;2022-12-18T00:23:52;-4.30;99.90
9975;DHT22;5028;50.974;4.968;2022-12-18T00:26:29;-4.30;99.90
9975;DHT22;5028;50.974;4.968;2022-12-18T00:28:58;-4.10;99.90
9975;DHT22;5028;50.974;4.968;2022-12-18T00:31:33;-4.30;99.90
9975;DHT22;5028;50.974;4.968;2022-12-18T00:34:03;-4.30;99.90
9975;DHT22;5028;50.974;4.968;2022-12-18T00:36:37;-4.30;99.90
9975;DHT22;5028;50.974;4.968;2022-12-18T00:39:07;-4.30;99.90
9975;DHT22;5028;50.974;4.968;2022-12-18T00:41:42;-4.30;99.90
9975;DHT22;5028;50.974;4.968;2022-12-18T00:44:27;-4.40;99.90
9975;DHT22;5028;50.974;4.968;2022-12-18T00:47:02;-4.30;99.90
9975;DHT22;5028;50.974;4.968;2022-12-18T00:49:30;-4.30;99.90
9975;DHT22;5028;50.974;4.968;2022-12-18T00:52:05;-4.20;99.90
9975;DHT22;5028;50.974;4.968;2022-12-18T00:54:35;-4.30;99.90
9975;DHT22;5028;50.974;4.968;2022-12-18T00:57:09;-4.30;99.90
9975;DHT22;5028;50.974;4.968;2022-12-18T00:59:37;-4.30;99.90
9975;DHT22;5028;50.974;4.968;2022-12-18T01:02:16;-4.30;99.90
9975;DHT22;5028;50.974;4.968;2022-12-18T01:04:44;-4.30;99.90
9975;DHT22;5028;50.974;4.968;2022-12-18T01:07:26;-4.30;99.90
9975;DHT22;5028;50.974;4.968;2022-12-18T01:09:56;-4.20;99.90
9975;DHT22;5028;50.974;4.968;2022-12-18T01:12:30;-4.20;99.90
9975;DHT22;5028;50.974;4.968;2022-12-18T01:14:58;-4.30;99.90
9975;DHT22;5028;50.974;4.968;2022-12-18T01:17:33;-4.30;99.90
9975;DHT22;5028;50.974;4.968;2022-12-18T01:20:02;-4.20;99.90
9975;DHT22;5028;50.974;4.968;2022-12-18T01:22:37;-4.20;99.90
9975;DHT22;5028;50.974;4.968;2022-12-18T01:25:08;-4.10;99.90
9975;DHT22;5028;50.974;4.968;2022-12-18T01:27:42;-4.20;99.90
9975;DHT22;5028;50.974;4.968;2022-12-18T01:30:11;-4.20;99.90
9975;DHT22;5028;50.974;4.968;2022-12-18T01:32:46;-4.20;99.90
9975;DHT22;5028;50.974;4.968;2022-12-18T01:35:14;-4.20;99.90
9975;DHT22;5028;50.974;4.968;2022-12-18T01:37:49;-4.20;99.90
9975;DHT22;5028;50.974;4.968;2022-12-18T01:40:23;-4.20;99.90
9975;DHT22;5028;50.974;4.968;2022-12-18T01:42:58;-4.20;99.90
9975;DHT22;5028;50.974;4.968;2022-12-18T01:45:28;-4.10;99.90
9975;DHT22;5028;50.974;4.968;2022-12-18T01:48:04;-4.20;99.90
9975;DHT22;5028;50.974;4.968;2022-12-18T01:50:37;-4.20;99.90
9975;DHT22;5028;50.974;4.968;2022-12-18T01:53:15;-4.20;99.90
9975;DHT22;5028;50.974;4.968;2022-12-18T01:55:47;-4.00;99.90
9975;DHT22;5028;50.974;4.968;2022-12-18T01:58:29;-4.30;99.90
9975;DHT22;5028;50.974;4.968;2022-12-18T02:01:00;-4.30;99.90
9975;DHT22;5028;50.974;4.968;2022-12-18T02:03:35;-4.40;99.90
9975;DHT22;5028;50.974;4.968;2022-12-18T02:06:15;-4.50;99.90
9975;DHT22;5028;50.974;4.968;2022-12-18T02:09:00;-4.50;99.90
9975;DHT22;5028;50.974;4.968;2022-12-18T02:11:39;-4.50;99.90
9975;DHT22;5028;50.974;4.968;2022-12-18T02:14:21;-4.50;99.90
9975;DHT22;5028;50.974;4.968;2022-12-18T02:16:54;-4.50;99.90
9975;DHT22;5028;50.974;4.968;2022-12-18T02:19:47;-4.50;99.90
9975;DHT22;5028;50.974;4.968;2022-12-18T02:22:26;-4.50;99.90
9975;DHT22;5028;50.974;4.968;2022-12-18T02:25:13;-4.50;99.90
9975;DHT22;5028;50.974;4.968;2022-12-18T02:27:46;-4.50;99.90
9975;DHT22;5028;50.974;4.968;2022-12-18T02:30:22;-4.50;99.90
9975;DHT22;5028;50.974;4.968;2022-12-18T02:32:52;-4.50;99.90
9975;DHT22;5028;50.974;4.968;2022-12-18T02:35:29;-4.50;99.90
9975;DHT22;5028;50.974;4.968;2022-12-18T02:37:58;-4.50;99.90
9975;DHT22;5028;50.974;4.968;2022-12-18T02:40:34;-4.50;99.90
9975;DHT22;5028;50.974;4.968;2022-12-18T02:43:07;-4.50;99.90
9975;DHT22;5028;50.974;4.968;2022-12-18T02:45:50;-4.50;99.90
9975;DHT22;5028;50.974;4.968;2022-12-18T02:48:24;-4.60;99.90
9975;DHT22;5028;50.974;4.968;2022-12-18T02:51:03;-4.60;99.90
9975;DHT22;5028;50.974;4.968;2022-12-18T02:53:42;-4.60;99.90
9975;DHT22;5028;50.974;4.968;2022-12-18T02:56:21;-4.60;99.90
9975;DHT22;5028;50.974;4.968;2022-12-18T02:58:58;-4.60;99.90
9975;DHT22;5028;50.974;4.968;2022-12-18T03:01:36;-4.50;99.90
9975;DHT22;5028;50.974;4.968;2022-12-18T03:04:17;-4.60;99.90
9975;DHT22;5028;50.974;4.968;2022-12-18T03:06:57;-4.60;99.90
9975;DHT22;5028;50.974;4.968;2022-12-18T03:09:29;-4.60;99.90
9975;DHT22;5028;50.974;4.968;2022-12-18T03:12:10;-4.60;99.90
9975;DHT22;5028;50.974;4.968;2022-12-18T03:14:56;-4.60;99.90
9975;DHT22;5028;50.974;4.968;2022-12-18T03:17:33;-4.60;99.90
9975;DHT22;5028;50.974;4.968;2022-12-18T03:20:07;-4.60;99.90
9975;DHT22;5028;50.974;4.968;2022-12-18T03:22:45;-4.60;99.90
9975;DHT22;5028;50.974;4.968;2022-12-18T03:25:15;-4.60;99.90
9975;DHT22;5028;50.974;4.968;2022-12-18T03:27:53;-4.60;99.90
9975;DHT22;5028;50.974;4.968;2022-12-18T03:30:26;-4.50;99.90
9975;DHT22;5028;50.974;4.968;2022-12-18T03:33:06;-4.60;99.90
9975;DHT22;5028;50.974;4.968;2022-12-18T03:35:38;-4.50;99.90
9975;DHT22;5028;50.974;4.968;2022-12-18T03:38:13;-4.60;99.90
9975;DHT22;5028;50.974;4.968;2022-12-18T03:40:50;-4.60;99.90
9975;DHT22;5028;50.974;4.968;2022-12-18T03:43:40;-4.60;99.90
9975;DHT22;5028;50.974;4.968;2022-12-18T03:46:17;-4.60;99.90
9975;DHT22;5028;50.974;4.968;2022-12-18T03:49:00;-4.70;99.90
9975;DHT22;5028;50.974;4.968;2022-12-18T03:51:36;-4.80;99.90
9975;DHT22;5028;50.974;4.968;2022-12-18T03:54:11;-4.80;99.90
9975;DHT22;5028;50.974;4.968;2022-12-18T03:56:43;-4.80;99.90
9975;DHT22;5028;50.974;4.968;2022-12-18T03:59:19;-4.80;99.90
9975;DHT22;5028;50.974;4.968;2022-12-18T04:01:50;-4.80;99.90
9975;DHT22;5028;50.974;4.968;2022-12-18T04:04:27;-4.80;99.90
9975;DHT22;5028;50.974;4.968;2022-12-18T04:07:10;-4.80;99.90
9975;DHT22;5028;50.974;4.968;2022-12-18T04:09:39;-4.90;99.90
9975;DHT22;5028;50.974;4.968;2022-12-18T04:12:14;-4.80;99.90
9975;DHT22;5028;50.974;4.968;2022-12-18T04:14:42;-4.80;99.90
9975;DHT22;5028;50.974;4.968;2022-12-18T04:17:19;-4.70;99.90
9975;DHT22;5028;50.974;4.968;2022-12-18T04:19:47;-4.80;99.90
9975;DHT22;5028;50.974;4.968;2022-12-18T04:22:21;-4.80;99.90
9975;DHT22;5028;50.974;4.968;2022-12-18T04:24:50;-4.80;99.90
9975;DHT22;5028;50.974;4.968;2022-12-18T04:27:24;-4.80;99.90
9975;DHT22;5028;50.974;4.968;2022-12-18T04:29:52;-4.80;99.90
9975;DHT22;5028;50.974;4.968;2022-12-18T04:32:29;-4.90;99.90
9975;DHT22;5028;50.974;4.968;2022-12-18T04:34:57;-4.90;99.90
9975;DHT22;5028;50.974;4.968;2022-12-18T04:37:31;-4.90;99.90
9975;DHT22;5028;50.974;4.968;2022-12-18T04:39:59;-4.80;99.90
9975;DHT22;5028;50.974;4.968;2022-12-18T04:42:34;-5.00;99.90
9975;DHT22;5028;50.974;4.968;2022-12-18T04:45:03;-5.00;99.90
9975;DHT22;5028;50.974;4.968;2022-12-18T04:47:39;-5.00;99.90
9975;DHT22;5028;50.974;4.968;2022-12-18T04:50:07;-5.00;99.90
9975;DHT22;5028;50.974;4.968;2022-12-18T04:52:42;-5.10;99.90
9975;DHT22;5028;50.974;4.968;2022-12-18T04:55:10;-5.00;99.90
9975;DHT22;5028;50.974;4.968;2022-12-18T04:57:45;-5.10;99.90
9975;DHT22;5028;50.974;4.968;2022-12-18T05:00:14;-5.00;99.90
9975;DHT22;5028;50.974;4.968;2022-12-18T05:02:57;-5.20;99.90
9975;DHT22;5028;50.974;4.968;2022-12-18T05:05:41;-5.20;99.90
9975;DHT22;5028;50.974;4.968;2022-12-18T05:08:16;-5.20;99.90
9975;DHT22;5028;50.974;4.968;2022-12-18T05:10:45;-5.20;99.90
9975;DHT22;5028;50.974;4.968;2022-12-18T05:13:20;-5.20;99.90
9975;DHT22;5028;50.974;4.968;2022-12-18T05:15:51;-5.10;99.90
9975;DHT22;5028;50.974;4.968;2022-12-18T05:18:29;-5.30;99.90
9975;DHT22;5028;50.974;4.968;2022-12-18T05:20:57;-5.30;99.90
9975;DHT22;5028;50.974;4.968;2022-12-18T05:23:36;-5.20;99.90
9975;DHT22;5028;50.974;4.968;2022-12-18T05:26:06;-5.30;99.90
9975;DHT22;5028;50.974;4.968;2022-12-18T05:28:40;-5.30;99.90
9975;DHT22;5028;50.974;4.968;2022-12-18T05:31:09;-5.30;99.90
9975;DHT22;5028;50.974;4.968;2022-12-18T05:33:46;-5.30;99.90
9975;DHT22;5028;50.974;4.968;2022-12-18T05:36:14;-5.30;99.90
9975;DHT22;5028;50.974;4.968;2022-12-18T05:38:48;-5.30;99.90
9975;DHT22;5028;50.974;4.968;2022-12-18T05:41:16;-5.30;99.90
9975;DHT22;5028;50.974;4.968;2022-12-18T05:43:51;-5.30;99.90
9975;DHT22;5028;50.974;4.968;2022-12-18T05:46:19;-5.30;99.90
9975;DHT22;5028;50.974;4.968;2022-12-18T05:48:59;-5.30;99.90
9975;DHT22;5028;50.974;4.968;2022-12-18T05:51:28;-5.40;99.90
9975;DHT22;5028;50.974;4.968;2022-12-18T05:54:02;-5.40;99.90
9975;DHT22;5028;50.974;4.968;2022-12-18T05:56:31;-5.40;99.90
9975;DHT22;5028;50.974;4.968;2022-12-18T05:59:12;-5.40;99.90
9975;DHT22;5028;50.974;4.968;2022-12-18T06:01:41;-5.50;99.90
9975;DHT22;5028;50.974;4.968;2022-12-18T06:04:26;-5.50;99.90
9975;DHT22;5028;50.974;4.968;2022-12-18T06:06:55;-5.50;99.90
9975;DHT22;5028;50.974;4.968;2022-12-18T06:09:29;-5.40;99.90
9975;DHT22;5028;50.974;4.968;2022-12-18T06:11:58;-5.60;99.90
9975;DHT22;5028;50.974;4.968;2022-12-18T06:14:34;-5.60;99.90
9975;DHT22;5028;50.974;4.968;2022-12-18T06:17:02;-5.60;99.90
9975;DHT22;5028;50.974;4.968;2022-12-18T06:19:38;-5.60;99.90
9975;DHT22;5028;50.974;4.968;2022-12-18T06:22:06;-5.60;99.90
9975;DHT22;5028;50.974;4.968;2022-12-18T06:24:40;-5.60;99.90
9975;DHT22;5028;50.974;4.968;2022-12-18T06:27:08;-5.60;99.90
9975;DHT22;5028;50.974;4.968;2022-12-18T06:29:43;-5.60;99.90
9975;DHT22;5028;50.974;4.968;2022-12-18T06:32:12;-5.60;99.90
9975;DHT22;5028;50.974;4.968;2022-12-18T06:34:48;-5.60;99.90
9975;DHT22;5028;50.974;4.968;2022-12-18T06:37:16;-5.60;99.90
9975;DHT22;5028;50.974;4.968;2022-12-18T06:39:50;-5.60;99.90
9975;DHT22;5028;50.974;4.968;2022-12-18T06:42:18;-5.70;99.90
9975;DHT22;5028;50.974;4.968;2022-12-18T06:44:54;-5.70;99.90
9975;DHT22;5028;50.974;4.968;2022-12-18T06:47:25;-5.70;99.90
9975;DHT22;5028;50.974;4.968;2022-12-18T06:50:01;-5.70;99.90
9975;DHT22;5028;50.974;4.968;2022-12-18T06:52:31;-5.70;99.90
9975;DHT22;5028;50.974;4.968;2022-12-18T06:55:06;-5.70;99.90
9975;DHT22;5028;50.974;4.968;2022-12-18T06:57:35;-5.70;99.90
9975;DHT22;5028;50.974;4.968;2022-12-18T07:00:10;-5.70;99.90
9975;DHT22;5028;50.974;4.968;2022-12-18T07:02:39;-5.80;99.90
9975;DHT22;5028;50.974;4.968;2022-12-18T07:05:15;-5.80;99.90
9975;DHT22;5028;50.974;4.968;2022-12-18T07:07:50;-5.80;99.90
9975;DHT22;5028;50.974;4.968;2022-12-18T07:10:24;-5.80;99.90
9975;DHT22;5028;50.974;4.968;2022-12-18T07:12:52;-5.80;99.90
9975;DHT22;5028;50.974;4.968;2022-12-18T07:15:27;-5.80;99.90
9975;DHT22;5028;50.974;4.968;2022-12-18T07:17:56;-5.80;99.90
9975;DHT22;5028;50.974;4.968;2022-12-18T07:20:32;-5.80;99.90
9975;DHT22;5028;50.974;4.968;2022-12-18T07:23:01;-5.80;99.90
9975;DHT22;5028;50.974;4.968;2022-12-18T07:25:37;-5.80;99.90
9975;DHT22;5028;50.974;4.968;2022-12-18T07:28:06;-5.90;99.90
9975;DHT22;5028;50.974;4.968;2022-12-18T07:30:43;-5.90;99.90
9975;DHT22;5028;50.974;4.968;2022-12-18T07:33:13;-5.90;99.90
9975;DHT22;5028;50.974;4.968;2022-12-18T07:35:49;-5.90;99.90
9975;DHT22;5028;50.974;4.968;2022-12-18T07:38:17;-5.90;99.90
9975;DHT22;5028;50.974;4.968;2022-12-18T07:40:51;-5.80;99.90
9975;DHT22;5028;50.974;4.968;2022-12-18T07:43:19;-5.80;99.90
9975;DHT22;5028;50.974;4.968;2022-12-18T07:45:54;-5.80;99.90
9975;DHT22;5028;50.974;4.968;2022-12-18T07:48:23;-5.80;99.90
9975;DHT22;5028;50.974;4.968;2022-12-18T07:51:00;-5.70;99.90
9975;DHT22;5028;50.974;4.968;2022-12-18T07:53:28;-5.80;99.90
9975;DHT22;5028;50.974;4.968;2022-12-18T07:56:05;-5.70;99.90
9975;DHT22;5028;50.974;4.968;2022-12-18T07:58:54;-5.70;99.90
9975;DHT22;5028;50.974;4.968;2022-12-18T08:01:28;-5.70;99.90
9975;DHT22;5028;50.974;4.968;2022-12-18T08:04:03;-5.60;99.90
9975;DHT22;5028;50.974;4.968;2022-12-18T08:06:40;-5.60;99.90
9975;DHT22;5028;50.974;4.968;2022-12-18T08:09:15;-5.60;99.90
9975;DHT22;5028;50.974;4.968;2022-12-18T08:11:49;-5.60;99.90
9975;DHT22;5028;50.974;4.968;2022-12-18T08:14:18;-5.60;99.90
9975;DHT22;5028;50.974;4.968;2022-12-18T08:16:52;-5.60;99.90
9975;DHT22;5028;50.974;4.968;2022-12-18T08:19:21;-5.60;99.90
9975;DHT22;5028;50.974;4.968;2022-12-18T08:21:57;-5.60;99.90
9975;DHT22;5028;50.974;4.968;2022-12-18T08:24:25;-5.50;99.90
9975;DHT22;5028;50.974;4.968;2022-12-18T08:26:59;-5.50;99.90
9975;DHT22;5028;50.974;4.968;2022-12-18T08:29:48;-5.40;99.90
9975;DHT22;5028;50.974;4.968;2022-12-18T08:32:23;-5.40;99.90
9975;DHT22;5028;50.974;4.968;2022-12-18T08:34:51;-5.30;99.90
9975;DHT22;5028;50.974;4.968;2022-12-18T08:37:27;-5.30;99.90
9975;DHT22;5028;50.974;4.968;2022-12-18T08:39:55;-5.30;99.90
9975;DHT22;5028;50.974;4.968;2022-12-18T08:42:29;-5.20;99.90
9975;DHT22;5028;50.974;4.968;2022-12-18T08:45:15;-5.20;99.90
9975;DHT22;5028;50.974;4.968;2022-12-18T08:47:50;-5.10;99.90
9975;DHT22;5028;50.974;4.968;2022-12-18T08:50:19;-5.00;99.90
9975;DHT22;5028;50.974;4.968;2022-12-18T08:52:55;-5.00;99.90
9975;DHT22;5028;50.974;4.968;2022-12-18T08:55:23;-4.90;99.90
9975;DHT22;5028;50.974;4.968;2022-12-18T08:57:58;-4.80;99.90
9975;DHT22;5028;50.974;4.968;2022-12-18T09:00:26;-4.80;99.90
9975;DHT22;5028;50.974;4.968;2022-12-18T09:03:11;-4.70;99.90
9975;DHT22;5028;50.974;4.968;2022-12-18T09:05:53;-4.60;99.90
9975;DHT22;5028;50.974;4.968;2022-12-18T09:08:29;-4.60;99.90
9975;DHT22;5028;50.974;4.968;2022-12-18T09:10:57;-4.60;99.90
9975;DHT22;5028;50.974;4.968;2022-12-18T09:13:32;-4.50;99.90
9975;DHT22;5028;50.974;4.968;2022-12-18T09:16:00;-4.40;99.90
9975;DHT22;5028;50.974;4.968;2022-12-18T09:18:36;-4.40;99.90
9975;DHT22;5028;50.974;4.968;2022-12-18T09:21:10;-4.30;99.90
9975;DHT22;5028;50.974;4.968;2022-12-18T09:23:49;-4.30;99.90
9975;DHT22;5028;50.974;4.968;2022-12-18T09:26:17;-4.20;99.90
9975;DHT22;5028;50.974;4.968;2022-12-18T09:28:52;-4.20;99.90
9975;DHT22;5028;50.974;4.968;2022-12-18T09:31:22;-4.10;99.90
9975;DHT22;5028;50.974;4.968;2022-12-18T09:33:57;-4.00;99.90
9975;DHT22;5028;50.974;4.968;2022-12-18T09:36:25;-4.00;99.90
9975;DHT22;5028;50.974;4.968;2022-12-18T09:39:01;-3.90;99.90
9975;DHT22;5028;50.974;4.968;2022-12-18T09:41:40;-3.80;99.90
9975;DHT22;5028;50.974;4.968;2022-12-18T09:44:20;-3.70;99.90
9975;DHT22;5028;50.974;4.968;2022-12-18T09:46:53;-3.70;99.90
9975;DHT22;5028;50.974;4.968;2022-12-18T09:49:33;-3.60;99.90
9975;DHT22;5028;50.974;4.968;2022-12-18T09:52:07;-3.60;99.90
9975;DHT22;5028;50.974;4.968;2022-12-18T09:54:46;-3.50;99.90
9975;DHT22;5028;50.974;4.968;2022-12-18T09:57:19;-3.60;99.90
9975;DHT22;5028;50.974;4.968;2022-12-18T09:59:58;-3.50;99.90
9975;DHT22;5028;50.974;4.968;2022-12-18T10:02:30;-3.40;99.90
9975;DHT22;5028;50.974;4.968;2022-12-18T10:05:13;-3.40;99.90
9975;DHT22;5028;50.974;4.968;2022-12-18T10:07:53;-3.30;99.90
9975;DHT22;5028;50.974;4.968;2022-12-18T10:10:38;-3.20;99.90
9975;DHT22;5028;50.974;4.968;2022-12-18T10:13:18;-3.20;99.90
9975;DHT22;5028;50.974;4.968;2022-12-18T10:16:03;-3.10;99.90
9975;DHT22;5028;50.974;4.968;2022-12-18T10:18:58;-3.10;99.90
9975;DHT22;5028;50.974;4.968;2022-12-18T10:21:39;-3.00;99.90
9975;DHT22;5028;50.974;4.968;2022-12-18T10:24:17;-2.90;99.90
9975;DHT22;5028;50.974;4.968;2022-12-18T10:27:04;-2.90;99.90
9975;DHT22;5028;50.974;4.968;2022-12-18T10:29:37;-2.80;99.90
9975;DHT22;5028;50.974;4.968;2022-12-18T10:32:14;-2.70;99.90
9975;DHT22;5028;50.974;4.968;2022-12-18T10:34:47;-2.70;99.90
9975;DHT22;5028;50.974;4.968;2022-12-18T10:37:28;-2.60;99.90
9975;DHT22;5028;50.974;4.968;2022-12-18T10:40:10;-2.60;99.90
9975;DHT22;5028;50.974;4.968;2022-12-18T10:43:03;-2.60;99.90
9975;DHT22;5028;50.974;4.968;2022-12-18T10:45:31;-2.50;99.90
9975;DHT22;5028;50.974;4.968;2022-12-18T10:48:18;-2.50;99.90
9975;DHT22;5028;50.974;4.968;2022-12-18T10:50:49;-2.40;99.90
9975;DHT22;5028;50.974;4.968;2022-12-18T10:53:42;-2.40;99.90
9975;DHT22;5028;50.974;4.968;2022-12-18T10:56:20;-2.30;99.90
9975;DHT22;5028;50.974;4.968;2022-12-18T10:58:58;-2.30;99.90
9975;DHT22;5028;50.974;4.968;2022-12-18T11:01:49;-2.20;99.90
9975;DHT22;5028;50.974;4.968;2022-12-18T11:04:20;-2.20;99.90
9975;DHT22;5028;50.974;4.968;2022-12-18T11:07:09;-2.10;99.90
9975;DHT22;5028;50.974;4.968;2022-12-18T11:09:39;-2.00;99.90
9975;DHT22;5028;50.974;4.968;2022-12-18T11:12:16;-2.00;99.90
9975;DHT22;5028;50.974;4.968;2022-12-18T11:14:49;-2.00;99.90
9975;DHT22;5028;50.974;4.968;2022-12-18T11:17:28;-1.90;99.90
9975;DHT22;5028;50.974;4.968;2022-12-18T11:19:58;-1.80;99.90
9975;DHT22;5028;50.974;4.968;2022-12-18T11:22:35;-1.80;99.90
9975;DHT22;5028;50.974;4.968;2022-12-18T11:25:06;-1.70;99.90
9975;DHT22;5028;50.974;4.968;2022-12-18T11:28:03;-1.70;99.90
9975;DHT22;5028;50.974;4.968;2022-12-18T11:30:33;-1.70;99.90
9975;DHT22;5028;50.974;4.968;2022-12-18T11:33:10;-1.60;99.90
9975;DHT22;5028;50.974;4.968;2022-12-18T11:35:47;-1.60;99.90
9975;DHT22;5028;50.974;4.968;2022-12-18T11:38:24;-1.60;99.90
9975;DHT22;5028;50.974;4.968;2022-12-18T11:40:58;-1.50;99.90
9975;DHT22;5028;50.974;4.968;2022-12-18T11:43:38;-1.50;99.90
9975;DHT22;5028;50.974;4.968;2022-12-18T11:46:13;-1.50;99.90
9975;DHT22;5028;50.974;4.968;2022-12-18T11:48:52;-1.50;99.90
9975;DHT22;5028;50.974;4.968;2022-12-18T11:51:26;-1.40;99.90
9975;DHT22;5028;50.974;4.968;2022-12-18T11:54:09;-1.40;99.90
9975;DHT22;5028;50.974;4.968;2022-12-18T11:56:43;-1.40;99.90
9975;DHT22;5028;50.974;4.968;2022-12-18T11:59:30;-1.30;99.90
9975;DHT22;5028;50.974;4.968;2022-12-18T12:02:15;-1.30;99.90
9975;DHT22;5028;50.974;4.968;2022-12-18T12:05:10;-1.20;99.90
9975;DHT22;5028;50.974;4.968;2022-12-18T12:07:53;-1.20;99.90
9975;DHT22;5028;50.974;4.968;2022-12-18T12:10:41;-1.20;99.90
9975;DHT22;5028;50.974;4.968;2022-12-18T12:13:23;-1.20;99.90
9975;DHT22;5028;50.974;4.968;2022-12-18T12:16:06;-1.20;99.90
9975;DHT22;5028;50.974;4.968;2022-12-18T12:18:50;-1.10;99.90
9975;DHT22;5028;50.974;4.968;2022-12-18T12:21:33;-1.10;99.90
9975;DHT22;5028;50.974;4.968;2022-12-18T12:24:15;-1.00;99.90
9975;DHT22;5028;50.974;4.968;2022-12-18T12:27:03;-1.00;99.90
9975;DHT22;5028;50.974;4.968;2022-12-18T12:29:44;-1.00;99.90
9975;DHT22;5028;50.974;4.968;2022-12-18T12:32:34;-1.00;99.90
9975;DHT22;5028;50.974;4.968;2022-12-18T12:35:18;-1.00;99.90
9975;DHT22;5028;50.974;4.968;2022-12-18T12:38:06;-0.90;99.90
9975;DHT22;5028;50.974;4.968;2022-12-18T12:40:41;-0.80;99.90
9975;DHT22;5028;50.974;4.968;2022-12-18T12:43:34;-0.80;99.90
9975;DHT22;5028;50.974;4.968;2022-12-18T12:46:04;-0.80;99.90
9975;DHT22;5028;50.974;4.968;2022-12-18T12:48:43;-0.80;99.90
9975;DHT22;5028;50.974;4.968;2022-12-18T12:51:17;-0.70;99.90
9975;DHT22;5028;50.974;4.968;2022-12-18T12:53:52;-0.70;99.90
9975;DHT22;5028;50.974;4.968;2022-12-18T12:56:32;-0.70;99.90
9975;DHT22;5028;50.974;4.968;2022-12-18T12:59:17;-0.60;99.90
9975;DHT22;5028;50.974;4.968;2022-12-18T13:01:54;-0.60;99.90
9975;DHT22;5028;50.974;4.968;2022-12-18T13:04:44;-0.60;99.90
9975;DHT22;5028;50.974;4.968;2022-12-18T13:07:19;-0.60;99.90
9975;DHT22;5028;50.974;4.968;2022-12-18T13:10:23;-0.60;99.90
9975;DHT22;5028;50.974;4.968;2022-12-18T13:12:54;-0.50;99.90
9975;DHT22;5028;50.974;4.968;2022-12-18T13:15:38;-0.50;99.90
9975;DHT22;5028;50.974;4.968;2022-12-18T13:18:18;-0.40;99.90
9975;DHT22;5028;50.974;4.968;2022-12-18T13:21:04;-0.30;99.90
9975;DHT22;5028;50.974;4.968;2022-12-18T13:23:38;-0.30;99.90
9975;DHT22;5028;50.974;4.968;2022-12-18T13:26:30;-0.30;99.90
9975;DHT22;5028;50.974;4.968;2022-12-18T13:29:00;-0.30;99.90
9975;DHT22;5028;50.974;4.968;2022-12-18T13:32:18;-0.20;99.90
9975;DHT22;5028;50.974;4.968;2022-12-18T13:34:48;-0.20;99.90
9975;DHT22;5028;50.974;4.968;2022-12-18T13:37:44;-0.20;99.90
9975;DHT22;5028;50.974;4.968;2022-12-18T13:43:34;-0.10;99.90
9975;DHT22;5028;50.974;4.968;2022-12-18T13:46:21;-0.20;99.90
9975;DHT22;5028;50.974;4.968;2022-12-18T13:49:02;-0.10;99.90
9975;DHT22;5028;50.974;4.968;2022-12-18T13:51:33;-0.20;99.90
9975;DHT22;5028;50.974;4.968;2022-12-18T13:54:19;-0.20;99.90
9975;DHT22;5028;50.974;4.968;2022-12-18T13:56:49;-0.20;99.90
9975;DHT22;5028;50.974;4.968;2022-12-18T13:59:26;-0.10;99.90
9975;DHT22;5028;50.974;4.968;2022-12-18T14:01:56;-0.10;99.90
9975;DHT22;5028;50.974;4.968;2022-12-18T14:04:34;-0.10;99.90
9975;DHT22;5028;50.974;4.968;2022-12-18T14:07:18;-0.10;99.90
9975;DHT22;5028;50.974;4.968;2022-12-18T14:10:00;0.00;99.90
9975;DHT22;5028;50.974;4.968;2022-12-18T14:12:49;0.00;99.90
9975;DHT22;5028;50.974;4.968;2022-12-18T14:15:34;0.00;99.90
9975;DHT22;5028;50.974;4.968;2022-12-18T14:18:16;0.10;99.90
9975;DHT22;5028;50.974;4.968;2022-12-18T14:20:55;0.10;99.90
9975;DHT22;5028;50.974;4.968;2022-12-18T14:23:30;0.10;99.90
9975;DHT22;5028;50.974;4.968;2022-12-18T14:26:21;0.10;99.90
9975;DHT22;5028;50.974;4.968;2022-12-18T14:28:50;0.10;99.90
9975;DHT22;5028;50.974;4.968;2022-12-18T14:31:28;0.10;99.90
9975;DHT22;5028;50.974;4.968;2022-12-18T14:33:57;0.10;99.90
9975;DHT22;5028;50.974;4.968;2022-12-18T14:36:32;0.10;99.90
9975;DHT22;5028;50.974;4.968;2022-12-18T14:39:00;0.10;99.90
9975;DHT22;5028;50.974;4.968;2022-12-18T14:41:35;0.10;99.90
9975;DHT22;5028;50.974;4.968;2022-12-18T14:44:06;0.10;99.90
9975;DHT22;5028;50.974;4.968;2022-12-18T14:46:44;0.10;99.90
9975;DHT22;5028;50.974;4.968;2022-12-18T14:49:20;0.10;99.90
9975;DHT22;5028;50.974;4.968;2022-12-18T14:51:57;0.20;99.90
9975;DHT22;5028;50.974;4.968;2022-12-18T14:54:28;0.10;99.90
9975;DHT22;5028;50.974;4.968;2022-12-18T14:57:05;0.10;99.90
9975;DHT22;5028;50.974;4.968;2022-12-18T14:59:33;0.20;99.90
9975;DHT22;5028;50.974;4.968;2022-12-18T15:02:15;0.10;99.90
9975;DHT22;5028;50.974;4.968;2022-12-18T15:04:46;0.10;99.90
9975;DHT22;5028;50.974;4.968;2022-12-18T15:07:40;0.10;99.90
9975;DHT22;5028;50.974;4.968;2022-12-18T15:10:12;0.10;99.90
9975;DHT22;5028;50.974;4.968;2022-12-18T15:12:48;0.10;99.90
9975;DHT22;5028;50.974;4.968;2022-12-18T15:15:45;0.10;99.90
9975;DHT22;5028;50.974;4.968;2022-12-18T15:18:29;0.10;99.90
9975;DHT22;5028;50.974;4.968;2022-12-18T15:20:59;0.10;99.90
9975;DHT22;5028;50.974;4.968;2022-12-18T15:23:36;0.10;99.90
9975;DHT22;5028;50.974;4.968;2022-12-18T15:26:07;0.10;99.90
9975;DHT22;5028;50.974;4.968;2022-12-18T15:28:45;0.00;99.90
9975;DHT22;5028;50.974;4.968;2022-12-18T15:31:24;0.10;99.90
9975;DHT22;5028;50.974;4.968;2022-12-18T15:34:19;0.10;99.90
9975;DHT22;5028;50.974;4.968;2022-12-18T15:36:49;0.10;99.90
9975;DHT22;5028;50.974;4.968;2022-12-18T15:39:24;0.20;99.90
9975;DHT22;5028;50.974;4.968;2022-12-18T15:41:52;0.10;99.90
9975;DHT22;5028;50.974;4.968;2022-12-18T15:44:44;0.20;99.90
9975;DHT22;5028;50.974;4.968;2022-12-18T15:47:12;0.20;99.90
9975;DHT22;5028;50.974;4.968;2022-12-18T15:49:48;0.20;99.90
9975;DHT22;5028;50.974;4.968;2022-12-18T15:52:16;0.30;99.90
9975;DHT22;5028;50.974;4.968;2022-12-18T15:54:59;0.20;99.90
9975;DHT22;5028;50.974;4.968;2022-12-18T15:57:44;0.20;99.90
9975;DHT22;5028;50.974;4.968;2022-12-18T16:00:19;0.20;99.90
9975;DHT22;5028;50.974;4.968;2022-12-18T16:02:47;0.30;99.90
9975;DHT22;5028;50.974;4.968;2022-12-18T16:05:31;0.30;99.90
9975;DHT22;5028;50.974;4.968;2022-12-18T16:07:59;0.30;99.90
9975;DHT22;5028;50.974;4.968;2022-12-18T16:10:35;0.30;99.90
9975;DHT22;5028;50.974;4.968;2022-12-18T16:13:03;0.30;99.90
9975;DHT22;5028;50.974;4.968;2022-12-18T16:15:38;0.30;99.90
9975;DHT22;5028;50.974;4.968;2022-12-18T16:18:06;0.30;99.90
9975;DHT22;5028;50.974;4.968;2022-12-18T16:20:42;0.30;99.90
9975;DHT22;5028;50.974;4.968;2022-12-18T16:23:10;0.30;99.90
9975;DHT22;5028;50.974;4.968;2022-12-18T16:25:45;0.40;99.90
9975;DHT22;5028;50.974;4.968;2022-12-18T16:28:13;0.40;99.90
9975;DHT22;5028;50.974;4.968;2022-12-18T16:30:48;0.40;99.90
9975;DHT22;5028;50.974;4.968;2022-12-18T16:33:16;0.40;99.90
9975;DHT22;5028;50.974;4.968;2022-12-18T16:35:53;0.40;99.90
9975;DHT22;5028;50.974;4.968;2022-12-18T16:38:21;0.40;99.90
9975;DHT22;5028;50.974;4.968;2022-12-18T16:40:56;0.50;99.90
9975;DHT22;5028;50.974;4.968;2022-12-18T16:43:38;0.50;99.90
9975;DHT22;5028;50.974;4.968;2022-12-18T16:46:20;0.50;99.90
9975;DHT22;5028;50.974;4.968;2022-12-18T16:48:48;0.50;99.90
9975;DHT22;5028;50.974;4.968;2022-12-18T16:51:24;0.50;99.90
9975;DHT22;5028;50.974;4.968;2022-12-18T16:53:53;0.50;99.90
9975;DHT22;5028;50.974;4.968;2022-12-18T16:56:35;0.60;99.90
9975;DHT22;5028;50.974;4.968;2022-12-18T16:59:04;0.60;99.90
9975;DHT22;5028;50.974;4.968;2022-12-18T17:01:39;0.60;99.90
9975;DHT22;5028;50.974;4.968;2022-12-18T17:04:08;0.60;99.90